.
WxDataArchive / Data Records for 2016-02-12
2016-02-11 February 2016 2016-02-13

Data Records for Friday, 12 February 2016

Time	Temp	Chill	HIndex	Humid	Dewpt	 Wind 	HiWind	WindDir	Rain 	Barom
-----	----	-----	------	-----	-----	------	------	-------	-----	-----
00:00	11.4	11.4	11.4	78	5.9	0	0	---	0.00	30.294 
00:05	11.2	11.2	11.2	78	5.7	0	0	---	0.00	30.294 
00:10	11.1	11.1	11.1	79	5.9	0	0	---	0.00	30.294 
00:15	11.1	11.1	11.1	79	5.9	0	0	---	0.00	30.291 
00:20	10.9	10.9	10.9	79	5.7	0	0	---	0.00	30.291 
00:25	10.7	10.7	10.7	80	5.8	0	0	---	0.00	30.291 
00:30	10.7	10.7	10.7	80	5.8	0	0	---	0.00	30.290 
00:35	10.7	10.7	10.7	80	5.8	0	0	---	0.00	30.290 
00:40	10.5	10.5	10.5	80	5.6	0	0	---	0.00	30.290 
00:45	10.4	10.4	10.4	80	5.5	0	0	---	0.00	30.279 
00:50	10.4	10.4	10.4	81	5.7	0	0	---	0.00	30.279 
00:55	10.2	10.2	10.2	81	5.6	0	0	---	0.00	30.279 
01:00	10.2	10.2	10.2	81	5.6	0	0	---	0.00	30.278 
01:05	10.2	10.2	10.2	81	5.6	0	0	---	0.00	30.278 
01:10	10.0	10.0	10.0	81	5.4	0	0	---	0.00	30.278 
01:15	10.0	10.0	10.0	81	5.4	0	0	---	0.00	30.275 
01:20	9.9	9.9	9.9	81	5.3	0	0	---	0.00	30.275 
01:25	9.9	9.9	9.9	81	5.3	0	0	---	0.00	30.275 
01:30	9.9	9.9	9.9	82	5.5	0	0	---	0.00	30.268 
01:35	9.7	9.7	9.7	82	5.3	0	0	---	0.00	30.268 
01:40	9.7	9.7	9.7	82	5.3	0	0	---	0.00	30.268 
01:45	9.9	9.9	9.9	82	5.5	0	0	---	0.00	30.258 
01:50	9.9	9.9	9.9	82	5.5	0	0	---	0.00	30.258 
01:55	9.7	9.7	9.7	82	5.3	0	0	---	0.00	30.258 
02:00	9.7	9.7	9.7	82	5.3	0	0	---	0.00	30.249 
02:05	9.7	9.7	9.7	83	5.6	0	0	---	0.00	30.249 
02:10	9.9	9.9	9.9	83	5.8	0	0	---	0.00	30.249 
02:15	9.9	9.9	9.9	83	5.8	0	0	---	0.00	30.245 
02:20	10.0	10.0	10.0	83	5.9	0	0	---	0.00	30.245 
02:25	10.0	10.0	10.0	83	5.9	0	0	---	0.00	30.245 
02:30	10.0	10.0	10.0	84	6.2	0	0	---	0.00	30.243 
02:35	10.2	10.2	10.2	84	6.3	0	0	---	0.00	30.243 
02:40	10.5	10.5	10.5	84	6.6	0	0	---	0.00	30.243 
02:45	10.7	10.7	10.7	84	6.8	0	0	---	0.00	30.238 
02:50	11.1	11.1	11.1	84	7.2	0	0	---	0.00	30.238 
02:55	11.1	11.1	11.1	84	7.2	0	0	---	0.00	30.238 
03:00	11.2	11.2	11.2	84	7.3	0	0	---	0.00	30.236 
03:05	11.2	11.2	11.2	84	7.3	0	0	---	0.00	30.236 
03:10	11.1	11.1	11.1	84	7.2	0	0	---	0.00	30.236 
03:15	10.9	10.9	10.9	84	7.0	0	0	---	0.00	30.228 
03:20	10.9	10.9	10.9	84	7.0	0	0	---	0.00	30.228 
03:25	10.7	10.7	10.7	84	6.8	0	0	---	0.00	30.228 
03:30	10.5	10.5	10.5	84	6.6	0	0	---	0.00	30.224 
03:35	10.5	10.5	10.5	84	6.6	0	0	---	0.00	30.224 
03:40	10.5	10.5	10.5	84	6.6	0	0	---	0.00	30.224 
03:45	10.5	10.5	10.5	84	6.6	0	0	---	0.00	30.215 
03:50	10.5	10.5	10.5	84	6.6	0	0	---	0.00	30.215 
03:55	10.7	10.7	10.7	84	6.8	0	0	---	0.00	30.215 
04:00	10.7	10.7	10.7	84	6.8	0	0	---	0.00	30.209 
04:05	10.7	10.7	10.7	84	6.8	0	0	---	0.00	30.209 
04:10	10.9	10.9	10.9	84	7.0	0	0	---	0.00	30.209 
04:15	11.1	11.1	11.1	84	7.2	0	0	---	0.00	30.199 
04:20	11.2	11.2	11.2	84	7.3	0	0	---	0.00	30.199 
04:25	11.4	11.4	11.4	84	7.5	0	0	---	0.00	30.199 
04:30	11.7	11.7	11.7	85	8.1	0	0	---	0.00	30.193 
04:35	11.9	11.9	11.9	84	8.0	0	0	---	0.00	30.193 
04:40	12.1	12.1	12.1	84	8.2	0	0	---	0.00	30.193 
04:45	12.3	12.3	12.3	84	8.4	0	0	---	0.00	30.191 
04:50	12.6	12.6	12.6	84	8.7	0	0	---	0.00	30.191 
04:55	12.8	12.8	12.8	84	8.9	0	0	---	0.00	30.191 
05:00	13.1	13.1	13.1	84	9.2	0	0	---	0.00	30.188 
05:05	13.3	13.3	13.3	84	9.4	0	0	---	0.00	30.188 
05:10	13.6	13.6	13.6	83	9.4	0	0	---	0.00	30.188 
05:15	14.0	14.0	14.0	83	9.8	0	0	---	0.00	30.183 
05:20	14.1	14.1	14.1	82	9.6	0	0	---	0.00	30.183 
05:25	14.3	14.3	14.3	82	9.8	0	0	---	0.00	30.183 
05:30	14.6	14.6	14.6	81	9.9	0	0	---	0.00	30.180 
05:35	14.8	14.8	14.8	81	10.0	0	0	---	0.00	30.180 
05:40	14.9	14.9	14.9	80	9.9	0	0	---	0.00	30.180 
05:45	15.1	15.1	15.1	79	9.8	0	0	---	0.00	30.182 
05:50	15.2	15.2	15.2	79	9.9	0	0	---	0.00	30.182 
05:55	15.4	15.4	15.4	78	9.8	0	0	---	0.00	30.182 
06:00	15.7	15.7	15.7	77	9.8	0	0	---	0.00	30.188 
06:05	15.9	15.9	15.9	76	9.7	0	1	292	0.00	30.188 
06:10	16.1	16.1	16.1	75	9.6	0	1	292	0.00	30.188 
06:15	16.2	16.2	16.2	74	9.4	0	1	292	0.00	30.183 
06:20	16.4	16.4	16.4	73	9.3	0	1	292	0.00	30.183 
06:25	16.5	16.5	16.5	72	9.1	0	0	---	0.00	30.183 
06:30	16.5	16.5	16.5	72	9.1	0	1	292	0.00	30.178 
06:35	16.7	16.7	16.7	71	9.0	0	1	292	0.00	30.178 
06:40	16.9	16.9	16.9	70	8.8	0	1	292	0.00	30.178 
06:45	16.9	16.9	16.9	70	8.8	0	1	292	0.00	30.177 
06:50	17.0	17.0	17.0	69	8.6	0	2	292	0.00	30.177 
06:55	17.0	17.0	17.0	68	8.3	0	2	292	0.00	30.177 
07:00	17.2	17.2	17.2	67	8.2	0	1	292	0.00	30.175 
07:05	17.2	17.2	17.2	67	8.2	0	1	292	0.00	30.175 
07:10	17.2	17.2	17.2	67	8.2	0	0	---	0.00	30.175 
07:15	17.3	17.3	17.3	67	8.3	0	1	292	0.00	30.173 
07:20	17.3	17.3	17.3	66	7.9	0	0	---	0.00	30.173 
07:25	17.5	17.5	17.5	66	8.1	0	0	---	0.00	30.173 
07:30	17.5	17.5	17.5	66	8.1	0	1	292	0.00	30.166 
07:35	17.7	17.7	17.7	65	8.0	0	1	292	0.00	30.166 
07:40	17.7	17.7	17.7	65	8.0	0	1	292	0.00	30.166 
07:45	17.7	17.7	17.7	65	8.0	0	1	292	0.00	30.167 
07:50	17.8	17.8	17.8	65	8.1	0	1	292	0.00	30.167 
07:55	17.8	17.8	17.8	65	8.1	0	1	292	0.00	30.167 
08:00	18.0	18.0	18.0	64	7.9	0	2	292	0.00	30.162 
08:05	18.0	18.0	18.0	64	7.9	0	1	292	0.00	30.162 
08:10	18.0	18.0	18.0	64	7.9	0	1	292	0.00	30.162 
08:15	18.1	18.1	18.1	63	7.7	0	2	292	0.00	30.149 
08:20	18.1	18.1	18.1	63	7.7	0	1	292	0.00	30.149 
08:25	18.3	18.3	18.3	63	7.8	0	2	292	0.00	30.149 
08:30	18.4	18.4	18.4	63	7.9	0	1	292	0.00	30.153 
08:35	18.6	18.6	18.6	62	7.8	0	1	292	0.00	30.153 
08:40	18.6	18.6	18.6	63	8.1	0	1	292	0.00	30.153 
08:45	18.8	18.8	18.8	63	8.3	0	1	292	0.00	30.146 
08:50	18.9	18.9	18.9	63	8.4	0	2	292	0.00	30.146 
08:55	19.1	19.1	19.1	63	8.6	0	2	292	0.00	30.146 
09:00	19.2	19.2	19.2	62	8.3	0	2	292	0.00	30.144 
09:05	19.4	19.4	19.4	62	8.5	0	4	292	0.00	30.144 
09:10	19.5	19.5	19.5	61	8.3	1	4	248	0.00	30.144 
09:15	19.5	19.5	19.5	61	8.3	0	2	248	0.00	30.138 
09:20	19.7	19.7	19.7	61	8.5	0	2	248	0.00	30.138 
09:25	19.9	19.9	19.9	61	8.7	0	2	248	0.00	30.138 
09:30	20.0	20.0	20.0	60	8.4	0	2	248	0.00	30.144 
09:35	20.0	20.0	20.0	60	8.4	0	2	248	0.00	30.144 
09:40	20.2	20.2	20.2	60	8.6	0	1	248	0.00	30.144 
09:45	20.3	20.3	20.3	60	8.7	0	3	248	0.00	30.135 
09:50	20.3	20.3	20.3	60	8.7	1	3	248	0.00	30.135 
09:55	20.5	20.5	20.5	59	8.5	1	3	248	0.00	30.135 
10:00	20.6	20.6	20.6	58	8.2	1	3	248	0.00	30.130 
10:05	20.8	20.8	20.8	58	8.4	0	2	270	0.00	30.130 
10:10	21.0	21.0	21.0	57	8.2	1	3	270	0.00	30.130 
10:15	21.1	21.1	21.1	57	8.3	0	3	270	0.00	30.130 
10:20	21.3	21.3	21.3	57	8.5	1	3	270	0.00	30.130 
10:25	21.4	21.4	21.4	56	8.2	1	4	248	0.00	30.130 
10:30	21.6	21.6	21.6	56	8.4	1	4	270	0.00	30.133 
10:35	21.6	21.6	21.6	56	8.4	2	4	270	0.00	30.133 
10:40	21.8	21.8	21.8	56	8.5	1	4	292	0.00	30.133 
10:45	21.9	21.9	21.9	57	9.0	1	3	270	0.00	30.126 
10:50	22.2	22.2	22.2	57	9.3	1	4	248	0.00	30.126 
10:55	22.4	22.4	22.4	57	9.5	1	6	225	0.00	30.126 
11:00	22.7	22.7	22.7	57	9.8	1	3	270	0.00	30.112 
11:05	23.0	23.0	23.0	56	9.7	1	6	248	0.00	30.112 
11:10	23.0	23.0	23.0	55	9.3	2	4	248	0.00	30.112 
11:15	23.2	23.2	23.2	55	9.5	1	4	248	0.00	30.116 
11:20	23.5	23.5	23.5	55	9.7	2	4	248	0.00	30.116 
11:25	23.8	23.8	23.8	55	10.0	1	5	292	0.00	30.116 
11:30	23.9	23.9	23.9	54	9.7	2	4	292	0.00	30.111 
11:35	24.1	24.1	24.1	54	9.9	2	5	292	0.00	30.111 
11:40	23.9	23.9	23.9	54	9.7	3	5	292	0.00	30.111 
11:45	23.6	23.6	23.6	54	9.4	3	6	270	0.00	30.110 
11:50	23.9	23.9	23.9	56	10.5	1	4	270	0.00	30.110 
11:55	23.9	23.9	23.9	55	10.1	2	7	248	0.00	30.110 
12:00	24.1	24.1	24.1	55	10.3	2	4	270	0.00	30.103 
12:05	24.2	24.2	24.2	55	10.4	2	5	292	0.00	30.103 
12:10	24.2	24.2	24.2	56	10.8	2	4	270	0.00	30.103 
12:15	24.2	24.2	24.2	56	10.8	2	5	270	0.00	30.098 
12:20	24.2	24.2	24.2	56	10.8	1	3	248	0.00	30.098 
12:25	24.1	24.1	24.1	55	10.3	2	5	270	0.00	30.098 
12:30	23.9	23.9	23.9	55	10.1	3	5	292	0.00	30.095 
12:35	23.8	23.8	23.8	56	10.4	2	6	292	0.00	30.095 
12:40	23.8	23.8	23.8	57	10.8	2	7	270	0.00	30.095 
12:45	23.6	23.6	23.6	58	11.0	2	4	248	0.00	30.085 
12:50	23.5	23.5	23.5	58	10.9	2	4	248	0.00	30.085 
12:55	23.5	23.5	23.5	59	11.3	2	6	248	0.00	30.085 
13:00	23.5	23.5	23.5	59	11.3	2	5	270	0.00	30.084 
13:05	23.6	23.6	23.6	59	11.4	2	7	270	0.00	30.084 
13:10	23.5	23.5	23.5	60	11.7	2	4	270	0.00	30.084 
13:15	23.2	23.2	23.2	61	11.8	3	6	270	0.00	30.083 
13:20	23.2	23.2	23.2	62	12.1	3	7	248	0.00	30.083 
13:25	23.0	23.0	23.0	63	12.3	2	5	270	0.00	30.083 
13:30	23.0	23.0	23.0	65	13.0	2	5	270	0.00	30.078 
13:35	23.0	23.0	23.0	64	12.7	3	5	270	0.00	30.078 
13:40	23.2	23.2	23.2	65	13.2	2	5	292	0.00	30.078 
13:45	23.0	23.0	23.0	67	13.7	3	7	270	0.00	30.073 
13:50	22.9	22.9	22.9	68	13.9	3	5	270	0.00	30.073 
13:55	23.0	23.0	23.0	69	14.4	2	5	292	0.00	30.073 
14:00	23.2	23.2	23.2	69	14.6	2	4	270	0.00	30.068 
14:05	23.3	23.3	23.3	69	14.7	2	5	270	0.00	30.068 
14:10	23.5	23.5	23.5	69	14.9	1	5	270	0.00	30.068 
14:15	23.5	23.5	23.5	68	14.5	2	7	270	0.00	30.066 
14:20	23.3	23.3	23.3	69	14.7	2	5	270	0.00	30.066 
14:25	23.3	23.3	23.3	69	14.7	3	5	270	0.00	30.066 
14:30	23.2	23.2	23.2	69	14.6	3	7	270	0.00	30.062 
14:35	23.3	23.3	23.3	70	15.0	2	5	270	0.00	30.062 
14:40	23.3	23.3	23.3	69	14.7	3	9	270	0.00	30.062 
14:45	23.3	23.3	23.3	68	14.3	3	9	270	0.00	30.061 
14:50	23.3	23.3	23.3	69	14.7	3	5	292	0.00	30.061 
14:55	23.3	23.3	23.3	69	14.7	2	4	270	0.00	30.061 
15:00	23.3	23.3	23.3	69	14.7	2	7	270	0.00	30.057 
15:05	23.3	23.3	23.3	67	14.0	3	6	292	0.00	30.057 
15:10	23.2	23.2	23.2	66	13.6	3	7	270	0.00	30.057 
15:15	23.3	23.3	23.3	66	13.6	1	4	270	0.00	30.061 
15:20	23.2	17.9	23.2	67	13.9	4	7	292	0.00	30.061 
15:25	22.9	17.6	22.9	69	14.3	4	9	270	0.00	30.061 
15:30	22.5	17.1	22.5	69	13.9	4	7	270	0.00	30.067 
15:35	22.1	22.1	22.1	74	15.1	3	6	270	0.00	30.067 
15:40	21.9	21.9	21.9	76	15.5	3	6	292	0.00	30.067 
15:45	22.1	22.1	22.1	74	15.1	3	7	292	0.00	30.070 
15:50	21.9	16.4	21.9	73	14.6	4	10	292	0.00	30.070 
15:55	21.3	14.5	21.3	65	11.4	5	11	292	0.00	30.070 
16:00	21.3	14.5	21.3	64	11.0	5	12	292	0.00	30.081 
16:05	21.3	14.5	21.3	61	10.0	5	10	292	0.00	30.081 
16:10	21.8	16.3	21.8	61	10.4	4	11	270	0.00	30.081 
16:15	22.2	16.8	22.2	59	10.1	4	11	292	0.00	30.084 
16:20	22.4	15.8	22.4	55	8.7	5	10	270	0.00	30.084 
16:25	21.9	15.2	21.9	54	7.8	5	10	270	0.00	30.084 
16:30	21.8	16.3	21.8	56	8.5	4	9	292	0.00	30.094 
16:35	21.8	16.3	21.8	62	10.8	4	12	292	0.00	30.094 
16:40	20.8	15.1	20.8	69	12.3	4	10	292	0.00	30.094 
16:45	20.3	20.3	20.3	71	12.4	3	8	292	0.00	30.101 
16:50	20.3	20.3	20.3	70	12.1	3	9	292	0.00	30.101 
16:55	20.3	20.3	20.3	68	11.5	3	7	292	0.00	30.101 
17:00	20.2	14.4	20.2	66	10.7	4	12	292	0.00	30.105 
17:05	20.3	20.3	20.3	62	9.4	3	10	315	0.00	30.105 
17:10	20.3	13.3	20.3	59	8.3	5	11	315	0.00	30.105 
17:15	20.2	14.4	20.2	58	7.8	4	6	292	0.00	30.111 
17:20	20.2	14.4	20.2	58	7.8	4	11	292	0.00	30.111 
17:25	20.3	14.6	20.3	58	7.9	4	7	270	0.00	30.111 
17:30	20.2	14.4	20.2	58	7.8	4	12	270	0.00	30.115 
17:35	19.9	19.9	19.9	60	8.3	3	7	270	0.00	30.115 
17:40	19.7	19.7	19.7	62	8.8	3	7	270	0.00	30.115 
17:45	19.7	19.7	19.7	64	9.5	3	6	270	0.00	30.120 
17:50	19.5	13.6	19.5	65	9.7	4	7	270	0.00	30.120 
17:55	19.5	19.5	19.5	65	9.7	1	3	270	0.00	30.120 
18:00	19.4	19.4	19.4	66	9.9	1	7	292	0.00	30.131 
18:05	19.4	19.4	19.4	65	9.6	2	7	270	0.00	30.131 
18:10	19.2	19.2	19.2	65	9.4	3	11	270	0.00	30.131 
18:15	19.1	19.1	19.1	64	9.0	3	9	270	0.00	30.141 
18:20	18.9	12.9	18.9	64	8.8	4	9	270	0.00	30.141 
18:25	18.8	18.8	18.8	65	9.0	2	5	270	0.00	30.141 
18:30	18.6	18.6	18.6	67	9.5	3	6	270	0.00	30.150 
18:35	18.4	18.4	18.4	69	10.0	2	6	270	0.00	30.150 
18:40	18.4	18.4	18.4	70	10.3	2	5	292	0.00	30.150 
18:45	18.3	18.3	18.3	71	10.5	2	6	270	0.00	30.163 
18:50	18.1	18.1	18.1	71	10.3	2	4	270	0.00	30.163 
18:55	18.0	18.0	18.0	71	10.2	3	5	270	0.00	30.163 
19:00	18.0	11.9	18.0	69	9.6	4	10	270	0.00	30.175 
19:05	17.8	11.7	17.8	68	9.1	4	10	292	0.00	30.175 
19:10	17.5	17.5	17.5	68	8.8	3	7	292	0.00	30.175 
19:15	17.3	17.3	17.3	69	8.9	2	7	292	0.00	30.179 
19:20	17.3	17.3	17.3	69	8.9	2	7	270	0.00	30.179 
19:25	17.3	17.3	17.3	69	8.9	3	6	315	0.00	30.179 
19:30	17.3	17.3	17.3	69	8.9	2	7	338	0.00	30.194 
19:35	17.3	17.3	17.3	66	7.9	2	6	270	0.00	30.194 
19:40	17.2	17.2	17.2	70	9.1	1	5	292	0.00	30.194 
19:45	17.2	17.2	17.2	70	9.1	2	7	315	0.00	30.202 
19:50	17.2	17.2	17.2	71	9.4	2	9	292	0.00	30.202 
19:55	17.3	17.3	17.3	72	9.8	2	7	292	0.00	30.202 
20:00	17.3	17.3	17.3	73	10.2	1	7	338	0.00	30.209 
20:05	17.2	11.0	17.2	71	9.4	4	11	292	0.00	30.209 
20:10	17.2	17.2	17.2	70	9.1	1	3	292	0.00	30.209 
20:15	17.0	17.0	17.0	69	8.6	3	7	292	0.00	30.210 
20:20	17.0	17.0	17.0	67	8.0	2	5	315	0.00	30.210 
20:25	17.0	17.0	17.0	67	8.0	3	6	292	0.00	30.210 
20:30	16.9	16.9	16.9	67	7.9	2	10	292	0.00	30.222 
20:35	16.7	16.7	16.7	66	7.3	1	5	292	0.00	30.222 
20:40	16.4	16.4	16.4	65	6.7	3	9	270	0.00	30.222 
20:45	16.2	16.2	16.2	64	6.2	3	9	292	0.00	30.228 
20:50	16.2	9.8	16.2	63	5.9	4	9	292	0.00	30.228 
20:55	16.1	16.1	16.1	63	5.8	3	7	292	0.00	30.228 
21:00	15.9	15.9	15.9	63	5.6	3	8	292	0.00	30.239 
21:05	15.7	15.7	15.7	63	5.4	3	7	292	0.00	30.239 
21:10	15.6	15.6	15.6	63	5.3	2	7	315	0.00	30.239 
21:15	15.4	15.4	15.4	63	5.1	3	7	292	0.00	30.239 
21:20	15.4	15.4	15.4	64	5.4	3	10	338	0.00	30.239 
21:25	15.2	15.2	15.2	64	5.2	2	6	315	0.00	30.239 
21:30	15.1	15.1	15.1	64	5.1	1	4	338	0.00	30.241 
21:35	14.9	14.9	14.9	65	5.3	1	4	315	0.00	30.241 
21:40	14.9	14.9	14.9	65	5.3	1	4	315	0.00	30.241 
21:45	14.8	14.8	14.8	66	5.5	1	5	292	0.00	30.248 
21:50	14.8	14.8	14.8	66	5.5	1	4	292	0.00	30.248 
21:55	14.8	14.8	14.8	66	5.5	2	6	292	0.00	30.248 
22:00	14.8	14.8	14.8	67	5.9	2	6	315	0.00	30.255 
22:05	14.6	14.6	14.6	67	5.7	1	4	315	0.00	30.255 
22:10	14.6	14.6	14.6	67	5.7	1	4	292	0.00	30.255 
22:15	14.4	14.4	14.4	68	5.8	1	5	292	0.00	30.262 
22:20	14.4	14.4	14.4	68	5.8	1	4	292	0.00	30.262 
22:25	14.3	14.3	14.3	68	5.7	2	4	292	0.00	30.262 
22:30	14.3	14.3	14.3	69	6.0	2	5	270	0.00	30.269 
22:35	14.3	14.3	14.3	69	6.0	2	5	315	0.00	30.269 
22:40	14.1	14.1	14.1	69	5.8	1	4	292	0.00	30.269 
22:45	14.1	14.1	14.1	69	5.8	1	3	292	0.00	30.273 
22:50	14.0	14.0	14.0	69	5.7	1	4	292	0.00	30.273 
22:55	14.0	14.0	14.0	69	5.7	1	2	292	0.00	30.273 
23:00	13.8	13.8	13.8	70	5.9	1	3	292	0.00	30.286 
23:05	13.8	13.8	13.8	70	5.9	1	4	292	0.00	30.286 
23:10	13.8	13.8	13.8	71	6.2	2	5	292	0.00	30.286 
23:15	13.8	13.8	13.8	70	5.9	1	6	315	0.00	30.287 
23:20	13.8	13.8	13.8	72	6.5	3	7	270	0.00	30.287 
23:25	13.8	13.8	13.8	74	7.1	1	3	270	0.00	30.287 
23:30	13.6	13.6	13.6	75	7.2	1	4	315	0.00	30.297 
23:35	13.6	13.6	13.6	77	7.8	1	3	315	0.00	30.297 
23:40	13.6	13.6	13.6	77	7.8	2	4	292	0.00	30.297 
23:45	13.6	13.6	13.6	79	8.3	1	3	270	0.00	30.306 
23:50	13.6	13.6	13.6	80	8.6	1	4	270	0.00	30.306 
23:55	13.6	13.6	13.6	81	8.9	1	4	270	0.00	30.306 

CoCoRaHS
IN-AL-39
A2 Web Hosting
Creative Commons License
GoDaddy
search engine by freefind advanced

loaded 2018-11-20 14:18:44 • last modified 2010-11-18 10:43:29
Privacy PolicyDisclaimer
• wx.awcolley.com is powered by PmWiki v.2002016 •
• all content (unless otherwise noted) © 2018 A W Colley